createdAt,value
2019-01-30T00:00:15.354Z,997.17
2019-01-30T00:01:15.362Z,997.11
2019-01-30T00:02:15.335Z,997.08
2019-01-30T00:03:15.338Z,997.07
2019-01-30T00:04:15.651Z,997.05
2019-01-30T00:05:15.317Z,997.01
2019-01-30T00:06:15.290Z,997.03
2019-01-30T00:07:15.290Z,997.11
2019-01-30T00:08:15.283Z,997.03
2019-01-30T00:09:15.277Z,997.05
2019-01-30T00:10:15.251Z,997.10
2019-01-30T00:11:15.238Z,997.15
2019-01-30T00:12:15.223Z,997.11
2019-01-30T00:13:15.225Z,997.05
2019-01-30T00:14:15.213Z,997.05
2019-01-30T00:15:15.196Z,997.09
2019-01-30T00:16:15.181Z,996.99
2019-01-30T00:17:15.185Z,997.06
2019-01-30T00:18:15.161Z,997.06
2019-01-30T00:19:15.161Z,997.00
2019-01-30T00:20:15.175Z,997.04
2019-01-30T00:21:15.132Z,996.96
2019-01-30T00:22:15.112Z,997.00
2019-01-30T00:23:15.111Z,997.01
2019-01-30T00:24:15.125Z,996.99
2019-01-30T00:25:15.150Z,997.00
2019-01-30T00:26:15.072Z,996.97
2019-01-30T00:27:15.065Z,996.95
2019-01-30T00:28:15.051Z,996.97
2019-01-30T00:29:15.066Z,996.94
2019-01-30T00:30:15.031Z,996.99
2019-01-30T00:31:15.022Z,996.97
2019-01-30T00:32:15.235Z,996.94
2019-01-30T00:33:15.078Z,996.98
2019-01-30T00:34:15.017Z,996.95
2019-01-30T00:35:14.981Z,996.97
2019-01-30T00:36:14.957Z,996.98
2019-01-30T00:37:14.971Z,997.05
2019-01-30T00:38:14.941Z,996.99
2019-01-30T00:39:14.935Z,996.98
2019-01-30T00:40:14.927Z,996.95
2019-01-30T00:41:14.918Z,996.95
2019-01-30T00:42:14.902Z,996.98
2019-01-30T00:43:14.906Z,996.99
2019-01-30T00:44:14.884Z,996.99
2019-01-30T00:45:14.878Z,996.96
2019-01-30T00:46:14.859Z,997.03
2019-01-30T00:47:15.886Z,997.02
2019-01-30T00:48:14.847Z,996.99
2019-01-30T00:49:14.836Z,996.93
2019-01-30T00:50:14.812Z,997.01
2019-01-30T00:51:14.799Z,996.93
2019-01-30T00:52:14.790Z,996.93
2019-01-30T00:53:14.792Z,996.93
2019-01-30T00:54:14.780Z,996.89
2019-01-30T00:55:14.755Z,996.90
2019-01-30T00:56:14.744Z,996.86
2019-01-30T00:57:14.738Z,996.89
2019-01-30T00:58:14.728Z,996.85
2019-01-30T00:59:14.717Z,996.84
2019-01-30T01:00:14.898Z,996.85
2019-01-30T01:01:14.690Z,996.82
2019-01-30T01:02:14.677Z,996.83
2019-01-30T01:03:14.667Z,996.83
2019-01-30T01:04:14.661Z,996.79
2019-01-30T01:05:14.663Z,996.79
2019-01-30T01:06:14.670Z,996.87
2019-01-30T01:07:14.630Z,996.85
2019-01-30T01:08:14.610Z,996.81
2019-01-30T01:09:14.604Z,996.79
2019-01-30T01:10:14.595Z,996.81
2019-01-30T01:11:14.603Z,996.82
2019-01-30T01:12:14.603Z,996.82
2019-01-30T01:13:14.737Z,996.76
2019-01-30T01:14:14.554Z,996.82
2019-01-30T01:15:14.550Z,996.81
2019-01-30T01:16:14.542Z,996.80
2019-01-30T01:17:14.533Z,996.87
2019-01-30T01:18:14.512Z,996.80
2019-01-30T01:19:14.495Z,996.86
2019-01-30T01:20:14.483Z,996.84
2019-01-30T01:21:14.471Z,996.82
2019-01-30T01:22:14.485Z,996.81
2019-01-30T01:23:14.544Z,996.77
2019-01-30T01:24:14.438Z,996.76
2019-01-30T01:25:14.434Z,996.81
2019-01-30T01:26:14.425Z,996.78
2019-01-30T01:27:14.410Z,996.82
2019-01-30T01:28:14.419Z,996.83
2019-01-30T01:29:14.471Z,996.76
2019-01-30T01:30:24.586Z,996.78
2019-01-30T01:31:15.383Z,996.81
2019-01-30T01:32:14.346Z,996.84
2019-01-30T01:33:14.348Z,996.81
2019-01-30T01:34:14.350Z,996.83
2019-01-30T01:35:14.345Z,996.80
2019-01-30T01:36:14.308Z,996.83
2019-01-30T01:37:14.293Z,996.75
2019-01-30T01:38:14.298Z,996.75
2019-01-30T01:39:14.280Z,996.73
2019-01-30T01:40:14.284Z,996.75
2019-01-30T01:41:14.262Z,996.73
2019-01-30T01:42:14.366Z,996.79
2019-01-30T01:43:14.234Z,996.77
2019-01-30T01:44:14.234Z,996.71
2019-01-30T01:45:14.219Z,996.72
2019-01-30T01:46:14.226Z,996.71
2019-01-30T01:47:14.194Z,996.74
2019-01-30T01:48:14.177Z,996.69
2019-01-30T01:49:14.163Z,996.72
2019-01-30T01:50:14.157Z,996.67
2019-01-30T01:51:14.181Z,996.65
2019-01-30T01:52:14.131Z,996.68
2019-01-30T01:53:14.125Z,996.73
2019-01-30T01:54:14.152Z,996.68
2019-01-30T01:55:14.106Z,996.68
2019-01-30T01:56:14.110Z,996.66
2019-01-30T01:57:14.092Z,996.65
2019-01-30T01:58:14.071Z,996.66
2019-01-30T01:59:14.067Z,996.64
2019-01-30T02:00:14.049Z,996.65
2019-01-30T02:01:14.038Z,996.62
2019-01-30T02:02:14.031Z,996.61
2019-01-30T02:03:14.017Z,996.66
2019-01-30T02:04:14.077Z,996.59
2019-01-30T02:05:13.990Z,996.58
2019-01-30T02:06:13.983Z,996.61
2019-01-30T02:07:13.971Z,996.56
2019-01-30T02:08:13.966Z,996.54
2019-01-30T02:09:13.951Z,996.55
2019-01-30T02:10:13.943Z,996.61
2019-01-30T02:11:13.929Z,996.53
2019-01-30T02:12:13.914Z,996.55
2019-01-30T02:13:13.911Z,996.58
2019-01-30T02:14:13.891Z,996.56
2019-01-30T02:15:13.891Z,996.49
2019-01-30T02:16:13.877Z,996.51
2019-01-30T02:17:13.894Z,996.50
2019-01-30T02:18:13.855Z,996.55
2019-01-30T02:19:13.847Z,996.51
2019-01-30T02:20:13.847Z,996.44
2019-01-30T02:21:13.889Z,996.49
2019-01-30T02:22:13.812Z,996.49
2019-01-30T02:23:13.792Z,996.39
2019-01-30T02:24:13.796Z,996.43
2019-01-30T02:25:13.772Z,996.39
2019-01-30T02:26:13.765Z,996.37
2019-01-30T02:27:13.752Z,996.32
2019-01-30T02:28:13.746Z,996.26
2019-01-30T02:29:13.758Z,996.33
2019-01-30T02:30:13.726Z,996.28
2019-01-30T02:31:13.720Z,996.32
2019-01-30T02:32:13.701Z,996.32
2019-01-30T02:33:13.684Z,996.30
2019-01-30T02:34:13.675Z,996.36
2019-01-30T02:35:13.669Z,996.34
2019-01-30T02:36:13.656Z,996.34
2019-01-30T02:37:13.640Z,996.28
2019-01-30T02:38:13.642Z,996.29
2019-01-30T02:39:13.620Z,996.31
2019-01-30T02:40:13.598Z,996.29
2019-01-30T02:41:13.603Z,996.28
2019-01-30T02:42:13.609Z,996.33
2019-01-30T02:43:13.577Z,996.27
2019-01-30T02:44:13.587Z,996.21
2019-01-30T02:45:13.582Z,996.19
2019-01-30T02:46:13.542Z,996.17
2019-01-30T02:47:13.541Z,996.18
2019-01-30T02:48:13.556Z,996.22
2019-01-30T02:49:13.506Z,996.21
2019-01-30T02:50:13.504Z,996.11
2019-01-30T02:51:13.513Z,996.22
2019-01-30T02:52:13.471Z,996.20
2019-01-30T02:53:13.475Z,996.21
2019-01-30T02:54:13.456Z,996.18
2019-01-30T02:55:13.466Z,996.24
2019-01-30T02:56:13.426Z,996.22
2019-01-30T02:57:13.422Z,996.27
2019-01-30T02:58:13.407Z,996.20
2019-01-30T02:59:13.397Z,996.23
2019-01-30T03:00:13.382Z,996.19
2019-01-30T03:01:13.385Z,996.24
2019-01-30T03:02:13.364Z,996.21
2019-01-30T03:03:13.348Z,996.29
2019-01-30T03:04:13.347Z,996.19
2019-01-30T03:05:13.370Z,996.22
2019-01-30T03:06:13.337Z,996.20
2019-01-30T03:07:13.320Z,996.21
2019-01-30T03:08:13.303Z,996.18
2019-01-30T03:09:13.291Z,996.25
2019-01-30T03:10:13.322Z,996.17
2019-01-30T03:11:13.262Z,996.17
2019-01-30T03:12:13.259Z,996.19
2019-01-30T03:13:13.237Z,996.17
2019-01-30T03:14:13.236Z,996.22
2019-01-30T03:15:13.221Z,996.17
2019-01-30T03:16:13.198Z,996.18
2019-01-30T03:17:13.196Z,996.20
2019-01-30T03:18:13.196Z,996.22
2019-01-30T03:19:13.296Z,996.24
2019-01-30T03:20:13.223Z,996.23
2019-01-30T03:21:13.196Z,996.22
2019-01-30T03:22:13.197Z,996.16
2019-01-30T03:23:13.127Z,996.24
2019-01-30T03:24:13.128Z,996.23
2019-01-30T03:25:13.105Z,996.25
2019-01-30T03:26:13.097Z,996.22
2019-01-30T03:27:13.086Z,996.25
2019-01-30T03:28:13.073Z,996.23
2019-01-30T03:29:13.067Z,996.16
2019-01-30T03:30:13.054Z,996.16
2019-01-30T03:31:17.523Z,996.19
2019-01-30T03:32:14.058Z,996.22
2019-01-30T03:33:13.026Z,996.21
2019-01-30T03:34:12.999Z,996.15
2019-01-30T03:35:13.003Z,996.15
2019-01-30T03:36:13.033Z,996.17
2019-01-30T03:37:12.968Z,996.15
2019-01-30T03:38:20.134Z,996.15
2019-01-30T03:39:55.626Z,996.19
2019-01-30T03:40:55.617Z,996.16
2019-01-30T03:41:55.596Z,996.09
2019-01-30T03:42:55.581Z,996.13
2019-01-30T03:43:55.572Z,996.16
2019-01-30T03:44:55.559Z,996.13
2019-01-30T03:45:55.583Z,996.10
2019-01-30T03:46:55.538Z,996.12
2019-01-30T03:47:55.534Z,996.12
2019-01-30T03:48:55.515Z,996.10
2019-01-30T03:49:55.509Z,996.10
2019-01-30T03:50:55.498Z,996.11
2019-01-30T03:51:55.482Z,996.05
2019-01-30T03:52:55.509Z,996.07
2019-01-30T03:53:55.461Z,996.09
2019-01-30T03:54:55.451Z,995.99
2019-01-30T03:55:55.489Z,996.05
2019-01-30T03:56:55.441Z,996.04
2019-01-30T03:57:55.419Z,996.02
2019-01-30T03:58:55.406Z,996.04
2019-01-30T03:59:55.387Z,996.05
2019-01-30T04:00:55.384Z,996.01
2019-01-30T04:01:55.383Z,996.02
2019-01-30T04:02:55.363Z,996.05
2019-01-30T04:03:55.352Z,996.03
2019-01-30T04:04:55.341Z,996.10
2019-01-30T04:05:55.329Z,996.03
2019-01-30T04:06:55.332Z,996.04
2019-01-30T04:07:55.302Z,996.00
2019-01-30T04:08:55.303Z,996.06
2019-01-30T04:09:55.288Z,996.08
2019-01-30T04:10:55.267Z,996.03
2019-01-30T04:11:55.255Z,996.05
2019-01-30T04:12:55.243Z,995.98
2019-01-30T04:13:55.243Z,995.99
2019-01-30T04:14:55.226Z,995.99
2019-01-30T04:15:55.211Z,995.98
2019-01-30T04:16:55.202Z,995.99
2019-01-30T04:17:55.198Z,995.91
2019-01-30T04:18:55.181Z,995.92
2019-01-30T04:19:55.173Z,995.91
2019-01-30T04:20:55.161Z,995.93
2019-01-30T04:21:55.148Z,995.85
2019-01-30T04:22:55.136Z,995.89
2019-01-30T04:23:55.131Z,995.90
2019-01-30T04:24:55.113Z,995.82
2019-01-30T04:25:55.113Z,995.88
2019-01-30T04:26:55.095Z,995.77
2019-01-30T04:27:55.077Z,995.81
2019-01-30T04:28:55.066Z,995.79
2019-01-30T04:29:55.057Z,995.84
2019-01-30T04:30:55.050Z,995.81
2019-01-30T04:31:55.064Z,995.82
2019-01-30T04:32:55.019Z,995.76
2019-01-30T04:33:55.024Z,995.78
2019-01-30T04:34:54.998Z,995.75
2019-01-30T04:35:54.992Z,995.69
2019-01-30T04:36:54.985Z,995.70
2019-01-30T04:37:54.960Z,995.71
2019-01-30T04:38:54.970Z,995.77
2019-01-30T04:39:54.955Z,995.71
2019-01-30T04:40:54.947Z,995.71
2019-01-30T04:41:54.935Z,995.78
2019-01-30T04:42:54.914Z,995.78
2019-01-30T04:43:54.903Z,995.76
2019-01-30T04:44:54.887Z,995.78
2019-01-30T04:45:54.886Z,995.73
2019-01-30T04:46:54.867Z,995.71
2019-01-30T04:47:54.868Z,995.68
2019-01-30T04:48:54.849Z,995.69
2019-01-30T04:49:54.825Z,995.69
2019-01-30T04:50:54.913Z,995.68
2019-01-30T04:51:54.815Z,995.69
2019-01-30T04:52:54.797Z,995.67
2019-01-30T04:53:54.803Z,995.64
2019-01-30T04:54:54.775Z,995.73
2019-01-30T04:55:54.764Z,995.67
2019-01-30T04:56:54.755Z,995.62
2019-01-30T04:57:54.738Z,995.69
2019-01-30T04:58:54.726Z,995.68
2019-01-30T04:59:54.719Z,995.66
2019-01-30T05:00:54.712Z,995.72
2019-01-30T05:01:54.698Z,995.72
2019-01-30T05:02:54.718Z,995.68
2019-01-30T05:03:54.708Z,995.62
2019-01-30T05:04:54.665Z,995.62
2019-01-30T05:05:54.647Z,995.58
2019-01-30T05:06:54.646Z,995.64
2019-01-30T05:07:54.630Z,995.62
2019-01-30T05:08:55.995Z,995.54
2019-01-30T05:09:54.624Z,995.56
2019-01-30T05:10:54.600Z,995.60
2019-01-30T05:11:54.582Z,995.56
2019-01-30T05:12:54.574Z,995.57
2019-01-30T05:13:54.562Z,995.55
2019-01-30T05:14:54.549Z,995.56
2019-01-30T05:15:54.538Z,995.58
2019-01-30T05:16:54.522Z,995.57
2019-01-30T05:17:54.509Z,995.55
2019-01-30T05:18:54.503Z,995.59
2019-01-30T05:19:54.490Z,995.60
2019-01-30T05:20:54.479Z,995.52
2019-01-30T05:21:54.466Z,995.58
2019-01-30T05:22:54.455Z,995.57
2019-01-30T05:23:54.451Z,995.49
2019-01-30T05:24:54.435Z,995.47
2019-01-30T05:25:54.438Z,995.47
2019-01-30T05:26:54.410Z,995.52
2019-01-30T05:27:54.398Z,995.49
2019-01-30T05:28:54.399Z,995.54
2019-01-30T05:29:54.378Z,995.42
2019-01-30T05:30:54.377Z,995.47
2019-01-30T05:32:00.989Z,995.41
2019-01-30T05:32:55.414Z,995.45
2019-01-30T05:33:54.332Z,995.41
2019-01-30T05:34:54.326Z,995.47
2019-01-30T05:35:54.311Z,995.41
2019-01-30T05:36:54.311Z,995.46
2019-01-30T05:37:54.288Z,995.49
2019-01-30T05:38:54.278Z,995.43
2019-01-30T05:39:54.299Z,995.44
2019-01-30T05:40:54.264Z,995.44
2019-01-30T05:41:54.253Z,995.44
2019-01-30T05:42:54.252Z,995.60
2019-01-30T05:43:54.234Z,995.50
2019-01-30T05:44:54.210Z,995.48
2019-01-30T05:45:54.216Z,995.58
2019-01-30T05:46:54.254Z,995.55
2019-01-30T05:47:54.190Z,995.57
2019-01-30T05:48:54.197Z,995.48
2019-01-30T05:49:54.195Z,995.57
2019-01-30T05:50:54.163Z,995.57
2019-01-30T05:51:54.141Z,995.55
2019-01-30T05:52:54.124Z,995.55
2019-01-30T05:53:54.122Z,995.59
2019-01-30T05:54:54.103Z,995.58
2019-01-30T05:55:54.085Z,995.59
2019-01-30T05:56:54.093Z,995.55
2019-01-30T05:57:54.082Z,995.58
2019-01-30T05:58:54.063Z,995.58
2019-01-30T05:59:54.074Z,995.59
2019-01-30T06:00:54.079Z,995.58
2019-01-30T06:01:54.027Z,995.55
2019-01-30T06:02:54.086Z,995.59
2019-01-30T06:03:54.013Z,995.58
2019-01-30T06:04:54.014Z,995.53
2019-01-30T06:05:53.995Z,995.63
2019-01-30T06:06:53.976Z,995.63
2019-01-30T06:07:53.959Z,995.57
2019-01-30T06:08:53.951Z,995.60
2019-01-30T06:09:53.939Z,995.61
2019-01-30T06:10:53.946Z,995.56
2019-01-30T06:11:53.918Z,995.64
2019-01-30T06:12:53.912Z,995.61
2019-01-30T06:13:53.895Z,995.64
2019-01-30T06:14:53.905Z,995.69
2019-01-30T06:15:53.878Z,995.69
2019-01-30T06:16:53.893Z,995.73
2019-01-30T06:17:53.937Z,995.72
2019-01-30T06:18:53.837Z,995.74
2019-01-30T06:19:53.832Z,995.69
2019-01-30T06:20:53.812Z,995.73
2019-01-30T06:21:53.807Z,995.71
2019-01-30T06:22:53.850Z,995.68
2019-01-30T06:23:53.788Z,995.68
2019-01-30T06:24:53.770Z,995.66
2019-01-30T06:25:53.778Z,995.65
2019-01-30T06:26:53.754Z,995.68
2019-01-30T06:27:53.748Z,995.73
2019-01-30T06:28:53.729Z,995.77
2019-01-30T06:29:53.710Z,995.72
2019-01-30T06:30:53.712Z,995.73
2019-01-30T06:31:53.705Z,995.78
2019-01-30T06:32:53.774Z,995.71
2019-01-30T06:33:53.688Z,995.70
2019-01-30T06:34:53.663Z,995.72
2019-01-30T06:35:53.652Z,995.71
2019-01-30T06:36:53.643Z,995.72
2019-01-30T06:37:53.626Z,995.70
2019-01-30T06:38:53.620Z,995.71
2019-01-30T06:39:53.603Z,995.70
2019-01-30T06:40:53.588Z,995.67
2019-01-30T06:41:53.574Z,995.70
2019-01-30T06:42:53.578Z,995.69
2019-01-30T06:43:53.558Z,995.67
2019-01-30T06:44:53.550Z,995.69
2019-01-30T06:45:53.538Z,995.71
2019-01-30T06:46:53.517Z,995.68
2019-01-30T06:47:53.508Z,995.69
2019-01-30T06:48:53.497Z,995.68
2019-01-30T06:49:53.507Z,995.74
2019-01-30T06:50:53.492Z,995.65
2019-01-30T06:51:53.471Z,995.68
2019-01-30T06:53:00.590Z,995.63
2019-01-30T06:54:35.126Z,995.66
2019-01-30T06:55:35.114Z,995.71
2019-01-30T06:57:16.800Z,995.68
2019-01-30T06:58:16.740Z,995.72
2019-01-30T06:59:58.850Z,995.68
2019-01-30T07:00:58.386Z,995.68
2019-01-30T07:02:40.569Z,995.65
2019-01-30T07:03:40.540Z,995.60
2019-01-30T07:04:40.518Z,995.63
2019-01-30T07:05:40.524Z,995.62
2019-01-30T07:06:40.502Z,995.59
2019-01-30T07:07:40.498Z,995.64
2019-01-30T07:08:40.483Z,995.56
2019-01-30T07:09:40.467Z,995.62
2019-01-30T07:10:40.458Z,995.54
2019-01-30T07:12:37.898Z,995.55
2019-01-30T07:13:37.874Z,995.61
2019-01-30T07:14:37.872Z,995.52
2019-01-30T07:15:37.852Z,995.55
2019-01-30T07:16:37.862Z,995.57
2019-01-30T07:17:37.888Z,995.59
2019-01-30T07:18:37.817Z,995.59
2019-01-30T07:19:37.809Z,995.59
2019-01-30T07:20:37.796Z,995.55
2019-01-30T07:21:37.791Z,995.56
2019-01-30T07:22:37.768Z,995.63
2019-01-30T07:23:37.760Z,995.58
2019-01-30T07:24:37.748Z,995.55
2019-01-30T07:25:37.737Z,995.62
2019-01-30T07:26:37.724Z,995.61
2019-01-30T07:27:37.776Z,995.55
2019-01-30T07:28:37.798Z,995.60
2019-01-30T07:29:37.696Z,995.61
2019-01-30T07:30:37.684Z,995.56
2019-01-30T07:31:37.678Z,995.58
2019-01-30T07:32:42.248Z,995.52
2019-01-30T07:33:37.649Z,995.57
2019-01-30T07:34:37.642Z,995.58
2019-01-30T07:35:37.702Z,995.56
2019-01-30T07:36:37.624Z,995.56
2019-01-30T07:37:37.649Z,995.53
2019-01-30T07:38:37.612Z,995.52
2019-01-30T07:39:37.610Z,995.51
2019-01-30T07:40:37.572Z,995.48
2019-01-30T07:41:37.647Z,995.51
2019-01-30T07:42:37.561Z,995.57
2019-01-30T07:43:37.541Z,995.53
2019-01-30T07:44:37.539Z,995.50
2019-01-30T07:45:37.522Z,995.50
2019-01-30T07:46:37.509Z,995.49
2019-01-30T07:47:37.492Z,995.46
2019-01-30T07:48:37.484Z,995.46
2019-01-30T07:49:37.507Z,995.48
2019-01-30T07:50:37.478Z,995.47
2019-01-30T07:51:37.459Z,995.51
2019-01-30T07:52:37.445Z,995.56
2019-01-30T07:53:37.427Z,995.54
2019-01-30T07:54:37.498Z,995.51
2019-01-30T07:55:37.414Z,995.50
2019-01-30T07:56:37.408Z,995.50
2019-01-30T07:57:37.383Z,995.52
2019-01-30T07:58:37.394Z,995.59
2019-01-30T07:59:37.358Z,995.54
2019-01-30T08:00:37.356Z,995.51
2019-01-30T08:01:37.350Z,995.54
2019-01-30T08:02:37.332Z,995.54
2019-01-30T08:03:38.951Z,995.54
2019-01-30T08:04:37.318Z,995.64
2019-01-30T08:05:37.302Z,995.51
2019-01-30T08:06:37.310Z,995.57
2019-01-30T08:07:37.280Z,995.51
2019-01-30T08:08:37.277Z,995.54
2019-01-30T08:09:37.256Z,995.56
2019-01-30T08:10:37.244Z,995.54
2019-01-30T08:11:37.263Z,995.50
2019-01-30T08:12:37.248Z,995.49
2019-01-30T08:13:37.220Z,995.45
2019-01-30T08:14:37.205Z,995.43
2019-01-30T08:15:37.203Z,995.51
2019-01-30T08:16:37.171Z,995.43
2019-01-30T08:17:37.161Z,995.55
2019-01-30T08:18:37.185Z,995.44
2019-01-30T08:19:37.183Z,995.43
2019-01-30T08:20:37.200Z,995.61
2019-01-30T08:21:37.136Z,995.50
2019-01-30T08:22:37.124Z,995.47
2019-01-30T08:23:37.244Z,995.48
2019-01-30T08:24:37.143Z,995.51
2019-01-30T08:25:37.305Z,995.48
2019-01-30T08:26:37.333Z,995.56
2019-01-30T08:27:37.067Z,995.47
2019-01-30T08:28:37.348Z,995.42
2019-01-30T08:29:37.033Z,995.47
2019-01-30T08:30:37.026Z,995.43
2019-01-30T08:31:37.456Z,995.46
2019-01-30T08:32:37.256Z,995.45
2019-01-30T08:33:37.014Z,995.45
2019-01-30T08:34:36.972Z,995.48
2019-01-30T08:35:36.990Z,995.43
2019-01-30T08:36:36.953Z,995.37
2019-01-30T08:37:38.556Z,995.46
2019-01-30T08:38:36.938Z,995.47
2019-01-30T08:39:36.923Z,995.39
2019-01-30T08:40:36.919Z,995.41
2019-01-30T08:41:36.897Z,995.35
2019-01-30T08:42:36.885Z,995.36
2019-01-30T08:43:36.881Z,995.33
2019-01-30T08:44:46.691Z,995.44
2019-01-30T08:45:37.853Z,995.38
2019-01-30T08:46:36.852Z,995.39
2019-01-30T08:47:36.872Z,995.38
2019-01-30T08:48:36.820Z,995.43
2019-01-30T08:49:36.846Z,995.41
2019-01-30T08:50:36.801Z,995.46
2019-01-30T08:51:36.789Z,995.45
2019-01-30T08:52:36.781Z,995.39
2019-01-30T08:53:36.775Z,995.39
2019-01-30T08:54:36.766Z,995.40
2019-01-30T08:55:36.753Z,995.37
2019-01-30T08:56:38.930Z,995.38
2019-01-30T08:57:36.725Z,995.36
2019-01-30T08:58:36.730Z,995.41
2019-01-30T08:59:36.706Z,995.41
2019-01-30T09:00:36.705Z,995.40
2019-01-30T09:01:36.677Z,995.38
2019-01-30T09:02:36.670Z,995.41
2019-01-30T09:03:36.653Z,995.41
2019-01-30T09:04:36.648Z,995.48
2019-01-30T09:05:36.648Z,995.51
2019-01-30T09:06:36.636Z,995.48
2019-01-30T09:07:43.982Z,995.51
2019-01-30T09:08:37.607Z,995.52
2019-01-30T09:09:36.597Z,995.56
2019-01-30T09:10:36.581Z,995.54
2019-01-30T09:11:36.575Z,995.52
2019-01-30T09:12:36.574Z,995.53
2019-01-30T09:13:36.555Z,995.47
2019-01-30T09:14:36.546Z,995.53
2019-01-30T09:15:36.556Z,995.51
2019-01-30T09:16:36.510Z,995.52
2019-01-30T09:17:36.511Z,995.56
2019-01-30T09:18:36.504Z,995.55
2019-01-30T09:19:36.480Z,995.56
2019-01-30T09:20:36.482Z,995.58
2019-01-30T09:21:36.462Z,995.50
2019-01-30T09:22:36.455Z,995.49
2019-01-30T09:23:36.445Z,995.49
2019-01-30T09:24:36.431Z,995.52
2019-01-30T09:25:36.422Z,995.51
2019-01-30T09:26:36.413Z,995.46
2019-01-30T09:27:36.408Z,995.53
2019-01-30T09:28:36.386Z,995.52
2019-01-30T09:29:36.380Z,995.46
2019-01-30T09:30:36.367Z,995.54
2019-01-30T09:31:36.353Z,995.51
2019-01-30T09:32:36.366Z,995.50
2019-01-30T09:33:36.337Z,995.53
2019-01-30T09:34:36.320Z,995.54
2019-01-30T09:35:36.314Z,995.54
2019-01-30T09:36:36.309Z,995.47
2019-01-30T09:37:36.294Z,995.54
2019-01-30T09:38:36.336Z,995.50
2019-01-30T09:39:36.271Z,995.55
2019-01-30T09:40:36.256Z,995.59
2019-01-30T09:41:36.262Z,995.55
2019-01-30T09:42:36.246Z,995.64
2019-01-30T09:43:36.301Z,995.61
2019-01-30T09:44:36.268Z,995.56
2019-01-30T09:45:36.260Z,995.60
2019-01-30T09:46:36.205Z,995.57
2019-01-30T09:47:36.232Z,995.58
2019-01-30T09:48:37.036Z,995.59
2019-01-30T09:49:36.158Z,995.58
2019-01-30T09:50:36.176Z,995.54
2019-01-30T09:51:36.159Z,995.48
2019-01-30T09:52:36.136Z,995.51
2019-01-30T09:53:36.206Z,995.51
2019-01-30T09:54:36.175Z,995.62
2019-01-30T09:55:36.105Z,995.45
2019-01-30T09:56:36.091Z,995.43
2019-01-30T09:57:36.071Z,995.43
2019-01-30T09:58:36.060Z,995.49
2019-01-30T09:59:36.056Z,995.44
2019-01-30T10:00:36.114Z,995.43
2019-01-30T10:01:36.079Z,995.36
2019-01-30T10:02:36.014Z,995.44
2019-01-30T10:03:36.761Z,995.41
2019-01-30T10:04:35.992Z,995.39
2019-01-30T10:05:35.984Z,995.41
2019-01-30T10:06:36.006Z,995.35
2019-01-30T10:07:35.960Z,995.42
2019-01-30T10:08:35.949Z,995.29
2019-01-30T10:09:37.608Z,995.31
2019-01-30T10:10:35.949Z,995.33
2019-01-30T10:11:35.932Z,995.28
2019-01-30T10:12:35.938Z,995.24
2019-01-30T10:13:37.528Z,995.24
2019-01-30T10:14:35.886Z,995.19
2019-01-30T10:15:35.908Z,995.18
2019-01-30T10:16:35.946Z,995.18
2019-01-30T10:17:35.863Z,995.16
2019-01-30T10:18:35.833Z,995.18
2019-01-30T10:19:35.827Z,995.21
2019-01-30T10:20:35.821Z,995.23
2019-01-30T10:21:35.841Z,995.28
2019-01-30T10:22:35.855Z,995.23
2019-01-30T10:23:35.848Z,995.17
2019-01-30T10:24:35.771Z,995.19
2019-01-30T10:25:35.758Z,995.19
2019-01-30T10:26:35.758Z,995.17
2019-01-30T10:27:35.744Z,995.23
2019-01-30T10:28:35.739Z,995.11
2019-01-30T10:29:35.729Z,995.11
2019-01-30T10:30:35.721Z,995.11
2019-01-30T10:31:35.695Z,995.10
2019-01-30T10:32:35.694Z,995.10
2019-01-30T10:33:45.698Z,995.08
2019-01-30T10:34:36.661Z,995.05
2019-01-30T10:35:35.656Z,995.11
2019-01-30T10:36:35.634Z,995.09
2019-01-30T10:37:35.632Z,995.08
2019-01-30T10:38:35.617Z,994.97
2019-01-30T10:39:35.604Z,995.07
2019-01-30T10:40:35.608Z,995.01
2019-01-30T10:41:35.591Z,995.02
2019-01-30T10:42:35.578Z,995.03
2019-01-30T10:43:35.715Z,995.00
2019-01-30T10:44:35.550Z,995.04
2019-01-30T10:45:38.151Z,995.02
2019-01-30T10:46:35.576Z,994.95
2019-01-30T10:47:35.530Z,994.87
2019-01-30T10:48:36.517Z,994.89
2019-01-30T10:49:35.582Z,994.91
2019-01-30T10:50:35.490Z,994.85
2019-01-30T10:51:35.484Z,994.86
2019-01-30T10:52:35.464Z,994.91
2019-01-30T10:53:35.455Z,994.83
2019-01-30T10:54:35.442Z,994.88
2019-01-30T10:55:35.427Z,994.78
2019-01-30T10:56:35.427Z,994.85
2019-01-30T10:57:35.415Z,994.83
2019-01-30T10:58:35.397Z,994.77
2019-01-30T10:59:35.383Z,994.78
2019-01-30T11:00:35.399Z,994.70
2019-01-30T11:01:35.360Z,994.73
2019-01-30T11:02:35.358Z,994.67
2019-01-30T11:03:35.336Z,994.71
2019-01-30T11:04:35.323Z,994.69
2019-01-30T11:05:35.308Z,994.65
2019-01-30T11:06:35.303Z,994.69
2019-01-30T11:07:35.291Z,994.73
2019-01-30T11:08:35.290Z,994.74
2019-01-30T11:09:35.267Z,994.81
2019-01-30T11:10:35.255Z,994.69
2019-01-30T11:11:35.244Z,994.72
2019-01-30T11:12:35.233Z,994.76
2019-01-30T11:13:35.230Z,994.69
2019-01-30T11:14:35.214Z,994.78
2019-01-30T11:15:35.204Z,994.69
2019-01-30T11:16:35.193Z,994.67
2019-01-30T11:17:35.183Z,994.69
2019-01-30T11:18:35.178Z,994.68
2019-01-30T11:19:35.164Z,994.70
2019-01-30T11:20:35.164Z,994.68
2019-01-30T11:21:35.142Z,994.70
2019-01-30T11:22:35.130Z,994.76
2019-01-30T11:23:35.110Z,994.62
2019-01-30T11:24:35.104Z,994.64
2019-01-30T11:25:35.095Z,994.66
2019-01-30T11:26:36.571Z,994.59
2019-01-30T11:27:35.071Z,994.65
2019-01-30T11:28:35.085Z,994.64
2019-01-30T11:29:35.054Z,994.72
2019-01-30T11:30:35.197Z,994.59
2019-01-30T11:31:35.031Z,994.71
2019-01-30T11:32:35.016Z,994.69
2019-01-30T11:33:35.007Z,994.61
2019-01-30T11:34:34.992Z,994.64
2019-01-30T11:35:34.981Z,994.67
2019-01-30T11:36:34.974Z,994.61
2019-01-30T11:37:34.964Z,994.56
2019-01-30T11:38:34.946Z,994.62
2019-01-30T11:39:34.934Z,994.63
2019-01-30T11:40:34.930Z,994.53
2019-01-30T11:41:34.914Z,994.58
2019-01-30T11:42:34.906Z,994.51
2019-01-30T11:43:34.894Z,994.61
2019-01-30T11:44:34.880Z,994.49
2019-01-30T11:45:34.870Z,994.49
2019-01-30T11:46:34.855Z,994.56
2019-01-30T11:47:34.860Z,994.51
2019-01-30T11:48:34.839Z,994.45
2019-01-30T11:49:34.823Z,994.47
2019-01-30T11:50:34.813Z,994.38
2019-01-30T11:51:34.809Z,994.33
2019-01-30T11:52:34.798Z,994.39
2019-01-30T11:53:34.782Z,994.35
2019-01-30T11:54:38.783Z,994.33
2019-01-30T11:55:34.759Z,994.36
2019-01-30T11:56:34.745Z,994.38
2019-01-30T11:57:34.736Z,994.39
2019-01-30T11:58:34.733Z,994.32
2019-01-30T11:59:34.720Z,994.45
2019-01-30T12:00:34.753Z,994.31
2019-01-30T12:01:34.702Z,994.36
2019-01-30T12:02:34.691Z,994.29
2019-01-30T12:03:34.676Z,994.32
2019-01-30T12:04:34.669Z,994.22
2019-01-30T12:05:34.739Z,994.18
2019-01-30T12:06:34.641Z,994.21
2019-01-30T12:07:34.631Z,994.20
2019-01-30T12:08:34.665Z,994.16
2019-01-30T12:09:34.607Z,994.12
2019-01-30T12:10:34.730Z,994.15
2019-01-30T12:11:34.588Z,994.14
2019-01-30T12:12:34.585Z,994.06
2019-01-30T12:13:34.579Z,994.07
2019-01-30T12:14:34.561Z,994.15
2019-01-30T12:15:34.548Z,994.08
2019-01-30T12:16:34.544Z,994.07
2019-01-30T12:17:34.526Z,994.08
2019-01-30T12:18:34.524Z,994.02
2019-01-30T12:19:34.513Z,994.00
2019-01-30T12:20:34.503Z,993.96
2019-01-30T12:21:34.488Z,994.13
2019-01-30T12:22:34.478Z,994.02
2019-01-30T12:23:34.482Z,994.00
2019-01-30T12:24:34.456Z,993.97
2019-01-30T12:25:34.448Z,994.03
2019-01-30T12:26:34.430Z,994.02
2019-01-30T12:27:34.422Z,993.94
2019-01-30T12:28:34.414Z,993.93
2019-01-30T12:29:34.395Z,993.88
2019-01-30T12:30:34.393Z,993.91
2019-01-30T12:31:34.393Z,993.93
2019-01-30T12:32:34.371Z,993.93